Time;durP1;ratioP1;P1;durP2;ratioP2;P2;SDS_P1;SDS_P2;PMS_P1;PMS_P2;Temp;Humidity;BMP_temperature;BMP_pressure;BME280_temperature;BME280_humidity;BME280_pressure;Samples;Min_cycle;Max_cycle;Signal;HPM_P1;HPM_P2
2022/07/16 00:39:02;;;;;;;2.17;0.73;;;16.10;99.90;;;;;;6292742;22;20095;-88
2022/07/16 00:42:30;;;;;;;2.63;0.68;;;16.00;99.90;;;;;;6263950;22;20035;-93
2022/07/16 00:44:55;;;;;;;2.67;0.80;;;15.90;99.90;;;;;;6239536;22;20016;-89
2022/07/16 00:47:22;;;;;;;2.47;0.80;;;15.90;99.90;;;;;;6239305;22;20018;-89
2022/07/16 00:49:49;;;;;;;2.05;0.70;;;15.80;99.90;;;;;;6264626;22;20024;-91
2022/07/16 00:52:15;;;;;;;1.20;0.60;;;15.70;99.90;;;;;;6266144;22;20007;-88
2022/07/16 00:57:34;;;;;;;1.95;0.60;;;15.70;99.90;;;;;;6306169;22;20023;-90
2022/07/16 00:59:59;;;;;;;1.55;0.60;;;15.70;99.90;;;;;;6255853;22;20019;-87
2022/07/16 01:02:25;;;;;;;1.77;0.52;;;15.70;99.90;;;;;;6256068;22;20043;-95
2022/07/16 01:08:12;;;;;;;1.58;0.60;;;15.80;99.90;;;;;;6128898;23;20028;-92
2022/07/16 01:10:39;;;;;;;1.13;0.40;;;15.70;99.90;;;;;;6234799;22;20054;-92
2022/07/16 01:17:01;;;;;;;2.10;0.70;;;15.80;99.90;;;;;;6248699;22;20065;-93
2022/07/16 01:19:41;;;;;;;1.48;0.40;;;15.80;99.90;;;;;;6278750;22;20150;-91
2022/07/16 01:22:07;;;;;;;1.63;0.60;;;15.80;99.90;;;;;;6282220;22;20033;-93
2022/07/16 01:24:33;;;;;;;1.63;0.70;;;15.80;99.90;;;;;;6257048;22;20090;-92
2022/07/16 01:26:58;;;;;;;0.63;0.30;;;15.80;99.90;;;;;;6282745;22;20250;-95
2022/07/16 01:29:24;;;;;;;1.23;0.43;;;15.80;99.90;;;;;;6282722;22;20149;-93
2022/07/16 01:31:52;;;;;;;1.25;0.47;;;15.80;99.90;;;;;;6256978;22;20018;-89
2022/07/16 01:34:26;;;;;;;1.58;0.32;;;15.80;99.90;;;;;;6282371;22;20011;-93
2022/07/16 01:37:00;;;;;;;1.23;0.40;;;15.80;99.90;;;;;;6256879;22;20016;-93
2022/07/16 01:39:29;;;;;;;1.58;0.22;;;15.80;99.90;;;;;;6282611;22;20019;-91
2022/07/16 01:41:57;;;;;;;1.13;0.35;;;15.80;99.90;;;;;;6256533;22;20030;-90
2022/07/16 01:44:24;;;;;;;1.15;0.45;;;15.70;99.90;;;;;;6282325;22;20168;-91
2022/07/16 01:46:51;;;;;;;0.93;0.52;;;15.80;99.90;;;;;;6256641;22;20026;-89
2022/07/16 01:50:01;;;;;;;1.13;0.45;;;15.70;99.90;;;;;;6282301;22;20023;-93
2022/07/16 01:52:33;;;;;;;2.92;0.50;;;15.80;99.90;;;;;;6257928;22;20023;-91
2022/07/16 01:55:12;;;;;;;1.45;0.40;;;15.70;99.90;;;;;;6256422;22;20018;-92
2022/07/16 01:57:40;;;;;;;0.80;0.30;;;15.70;99.90;;;;;;6255973;22;20098;-96
2022/07/16 02:00:10;;;;;;;0.60;0.40;;;15.70;99.90;;;;;;6255974;22;20050;-96
2022/07/16 02:02:35;;;;;;;1.00;0.30;;;15.70;99.90;;;;;;6257106;22;20557;-93
2022/07/16 02:05:01;;;;;;;0.95;0.40;;;15.60;99.90;;;;;;6257719;22;20019;-90
2022/07/16 02:07:37;;;;;;;1.80;0.50;;;15.60;99.90;;;;;;6282223;22;20021;-92
2022/07/16 02:10:29;;;;;;;2.42;0.60;;;15.60;99.90;;;;;;6257900;22;20256;-94
2022/07/16 02:13:26;;;;;;;1.15;0.40;;;15.60;99.90;;;;;;6256438;22;20011;-92
2022/07/16 02:15:52;;;;;;;1.30;0.50;;;15.60;99.90;;;;;;6282291;22;20348;-96
2022/07/16 02:18:18;;;;;;;1.90;0.55;;;15.50;99.90;;;;;;6256460;22;20061;-91
2022/07/16 02:20:47;;;;;;;1.27;0.40;;;15.50;99.90;;;;;;6257120;22;20395;-93
2022/07/16 02:23:12;;;;;;;1.52;0.40;;;15.40;99.90;;;;;;6256037;22;20352;-92
2022/07/16 02:25:40;;;;;;;1.10;0.45;;;15.30;99.90;;;;;;6256744;22;20018;-95
2022/07/16 02:33:19;;;;;;;2.67;0.40;;;15.30;99.90;;;;;;6257482;22;20024;-89
2022/07/16 04:09:18;;;;;;;3.08;0.77;;;14.40;99.90;;;;;;6246477;22;20024;-91
2022/07/16 04:11:44;;;;;;;3.40;1.10;;;14.40;99.90;;;;;;6220374;23;20454;-93
2022/07/16 04:14:10;;;;;;;2.28;0.70;;;14.40;99.90;;;;;;6219848;23;20338;-91
2022/07/16 04:16:37;;;;;;;1.20;0.60;;;14.30;99.90;;;;;;6219722;23;20070;-90
2022/07/16 04:19:02;;;;;;;3.28;0.70;;;14.30;99.90;;;;;;6219941;23;20270;-91
2022/07/16 06:02:31;;;;;;;1.50;0.20;;;15.60;99.90;;;;;;6281329;22;20433;-93
2022/07/16 06:05:29;;;;;;;3.03;0.52;;;15.50;99.90;;;;;;6234227;22;20019;-90
2022/07/16 06:08:34;;;;;;;1.42;0.40;;;15.50;99.90;;;;;;6234574;22;20019;-89
2022/07/16 19:36:17;;;;;;;2.13;0.40;;;16.70;98.20;;;;;;6275785;22;20027;-91
2022/07/16 19:42:05;;;;;;;0.77;0.32;;;16.70;98.70;;;;;;6249470;22;20099;-94
2022/07/16 19:45:06;;;;;;;;;;;;;;;;;;;;;
2022/07/16 20:23:06;;;;;;;1.02;0.28;;;16.00;99.90;;;;;;6279979;22;20023;-94
2022/07/16 20:28:07;;;;;;;1.25;0.40;;;15.80;99.90;;;;;;6248144;22;20024;-96
2022/07/16 20:30:33;;;;;;;1.30;0.30;;;15.80;99.90;;;;;;6196414;23;20357;-95
2022/07/16 20:33:00;;;;;;;2.13;0.60;;;15.70;99.90;;;;;;6222279;23;20016;-95
2022/07/16 20:35:29;;;;;;;1.80;0.60;;;15.60;99.90;;;;;;6196363;23;20059;-96
2022/07/16 20:37:57;;;;;;;2.33;0.40;;;15.60;99.90;;;;;;6196565;23;20012;-95
2022/07/16 20:40:28;;;;;;;1.85;0.50;;;15.60;99.90;;;;;;6200124;23;20020;-96
2022/07/16 20:42:54;;;;;;;3.53;0.57;;;15.60;99.90;;;;;;6195708;23;20381;-94
2022/07/16 23:40:30;;;;;;;3.75;0.60;;;13.60;99.90;;;;;;6289358;22;20028;-94
2022/07/16 23:42:56;;;;;;;2.03;0.68;;;13.60;99.90;;;;;;6236907;22;20024;-95
2022/07/16 23:45:23;;;;;;;1.52;0.55;;;13.70;99.90;;;;;;6258035;22;20042;-96
2022/07/16 23:47:48;;;;;;;;;;;13.70;99.90;;;;;;6229284;22;20012;-95
2022/07/16 23:50:14;;;;;;;2.13;0.80;;;13.70;99.90;;;;;;6235212;22;20430;-93
2022/07/16 23:52:40;;;;;;;1.75;0.60;;;13.80;99.90;;;;;;6241706;22;20101;-94
